createdAt,value
2022-10-19T00:02:30.177Z,10
2022-10-19T00:05:30.106Z,10.8
2022-10-19T00:08:30.132Z,12.2
2022-10-19T00:11:30.115Z,9.9
2022-10-19T00:14:30.125Z,10.4
2022-10-19T00:17:30.245Z,10.9
2022-10-19T00:20:30.123Z,8
2022-10-19T00:23:30.125Z,7.9
2022-10-19T00:26:30.156Z,7.2
2022-10-19T00:29:30.134Z,8.4
2022-10-19T00:32:30.263Z,7.9
2022-10-19T00:35:30.145Z,8.9
2022-10-19T00:38:30.146Z,9.7
2022-10-19T00:41:30.146Z,7.1
2022-10-19T00:44:30.176Z,8.7
2022-10-19T00:47:33.498Z,8.1
2022-10-19T00:50:30.157Z,7.9
2022-10-19T00:53:30.161Z,5.9
2022-10-19T00:56:30.160Z,8.2
2022-10-19T00:59:30.164Z,8.5
2022-10-19T01:02:30.315Z,7.5
2022-10-19T01:05:30.177Z,6
2022-10-19T01:08:30.173Z,7.6
2022-10-19T01:11:30.182Z,9.3
2022-10-19T01:14:30.402Z,10.2
2022-10-19T01:17:30.244Z,6
2022-10-19T01:20:30.219Z,6.8
2022-10-19T01:23:30.195Z,8.1
2022-10-19T01:26:30.199Z,10.5
2022-10-19T01:29:30.199Z,8.4
2022-10-19T01:32:30.212Z,9.2
2022-10-19T01:35:30.203Z,6.2
2022-10-19T01:38:30.230Z,6.6
2022-10-19T01:41:30.204Z,8.6
2022-10-19T01:44:30.204Z,9.1
2022-10-19T01:47:30.299Z,8
2022-10-19T01:50:30.207Z,8
2022-10-19T01:53:30.213Z,9.3
2022-10-19T01:56:30.235Z,10
2022-10-19T01:59:30.214Z,7.6
2022-10-19T02:02:30.403Z,6.7
2022-10-19T02:05:30.231Z,8.1
2022-10-19T02:08:30.221Z,6.6
2022-10-19T02:11:30.235Z,8.2
2022-10-19T02:14:30.272Z,7.6
2022-10-19T02:17:30.254Z,8.6
2022-10-19T02:20:30.246Z,7.6
2022-10-19T02:23:30.250Z,7.6
2022-10-19T02:26:30.258Z,9.2
2022-10-19T02:29:30.271Z,9.1
2022-10-19T02:32:30.448Z,7.8
2022-10-19T02:35:30.273Z,9.3
2022-10-19T02:38:30.282Z,6.8
2022-10-19T02:41:30.285Z,7.8
2022-10-19T02:44:30.290Z,6.9
2022-10-19T02:47:30.363Z,9
2022-10-19T02:50:30.382Z,7.3
2022-10-19T02:53:30.310Z,8.2
2022-10-19T02:56:30.313Z,7.4
2022-10-19T02:59:30.316Z,6.9
2022-10-19T03:02:30.324Z,10.1
2022-10-19T03:05:30.327Z,8.4
2022-10-19T03:08:30.357Z,9.4
2022-10-19T03:11:30.342Z,7
2022-10-19T03:14:30.342Z,6.3
2022-10-19T03:17:30.467Z,7.1
2022-10-19T03:20:30.351Z,8.8
2022-10-19T03:23:30.359Z,5.9
2022-10-19T03:26:30.390Z,6.5
2022-10-19T03:29:30.365Z,7.3
2022-10-19T03:32:30.391Z,6.5
2022-10-19T03:35:30.370Z,6.3
2022-10-19T03:38:30.382Z,6.6
2022-10-19T03:41:30.383Z,7.6
2022-10-19T03:44:30.420Z,6.6
2022-10-19T03:47:30.508Z,6.1
2022-10-19T03:50:30.406Z,6.7
2022-10-19T03:53:31.405Z,6.1
2022-10-19T03:56:30.415Z,5.3
2022-10-19T03:59:30.417Z,6.2
2022-10-19T04:02:30.467Z,6.5
2022-10-19T04:05:30.437Z,5.7
2022-10-19T04:08:30.443Z,7.3
2022-10-19T04:11:30.443Z,8.3
2022-10-19T04:14:32.959Z,5.8
2022-10-19T04:17:30.462Z,6.2
2022-10-19T04:20:30.487Z,5.9
2022-10-19T04:23:30.481Z,6.4
2022-10-19T04:26:30.476Z,6.1
2022-10-19T04:29:30.867Z,6.1
2022-10-19T04:32:30.499Z,8.8
2022-10-19T04:35:30.491Z,6.4
2022-10-19T04:38:30.527Z,7.3
2022-10-19T04:41:30.507Z,5.6
2022-10-19T04:44:30.514Z,5.1
2022-10-19T04:47:30.615Z,6.6
2022-10-19T04:50:30.523Z,6.1
2022-10-19T04:53:30.538Z,7
2022-10-19T04:56:30.566Z,9
2022-10-19T04:59:30.551Z,6.8
2022-10-19T05:02:30.567Z,6.4
2022-10-19T05:05:30.564Z,5.4
2022-10-19T05:08:30.568Z,6.5
2022-10-19T05:11:30.577Z,5.7
2022-10-19T05:14:30.611Z,5.8
2022-10-19T05:17:30.684Z,9.6
2022-10-19T05:20:30.601Z,6.2
2022-10-19T05:26:30.616Z,6.7
2022-10-19T05:29:30.623Z,8.3
2022-10-19T05:32:30.697Z,5.7
2022-10-19T05:35:30.638Z,7.3
2022-10-19T05:38:30.649Z,7.1
2022-10-19T05:41:30.653Z,7.3
2022-10-19T05:44:30.745Z,6.4
2022-10-19T05:47:31.085Z,8.2
2022-10-19T05:50:30.700Z,6.7
2022-10-19T05:53:30.729Z,5.2
2022-10-19T05:56:30.698Z,7.2
2022-10-19T05:59:30.703Z,7.1
2022-10-19T06:02:30.729Z,6.2
2022-10-19T06:05:30.750Z,5.6
2022-10-19T06:08:30.760Z,6
2022-10-19T06:11:30.740Z,6.7
2022-10-19T06:14:30.748Z,6.6
2022-10-19T06:17:30.770Z,5.3
2022-10-19T06:20:30.765Z,9.2
2022-10-19T06:23:30.855Z,6.3
2022-10-19T06:26:30.810Z,8.3
2022-10-19T06:29:30.790Z,5.2
2022-10-19T06:32:30.809Z,6.3
2022-10-19T06:35:30.811Z,7.1
2022-10-19T06:38:30.818Z,7.1
2022-10-19T06:41:30.832Z,7.5
2022-10-19T06:44:30.863Z,8.3
2022-10-19T06:47:31.112Z,7.8
2022-10-19T06:50:30.858Z,8.6
2022-10-19T06:53:30.870Z,8.1
2022-10-19T06:56:30.883Z,8
2022-10-19T06:59:30.898Z,7.5
2022-10-19T07:02:30.938Z,6.5
2022-10-19T07:05:30.918Z,6.8
2022-10-19T07:08:30.920Z,9.3
2022-10-19T07:11:30.944Z,8
2022-10-19T07:14:30.951Z,6.3
2022-10-19T07:17:31.318Z,6.4
2022-10-19T07:20:30.998Z,7.2
2022-10-19T07:23:30.987Z,5.2
2022-10-19T07:26:30.998Z,6.1
2022-10-19T07:29:31.003Z,8
2022-10-19T07:32:31.026Z,7.4
2022-10-19T07:35:31.044Z,8
2022-10-19T07:38:31.069Z,6.4
2022-10-19T07:41:31.048Z,7.2
2022-10-19T07:44:31.054Z,7.6
2022-10-19T07:47:31.189Z,7.5
2022-10-19T07:50:31.087Z,7
2022-10-19T07:53:31.104Z,6.8
2022-10-19T07:56:31.136Z,7.1
2022-10-19T07:59:31.127Z,6.2
2022-10-19T08:02:35.069Z,7.4
2022-10-19T08:05:31.149Z,7.4
2022-10-19T08:08:31.220Z,7
2022-10-19T08:11:31.191Z,8.1
2022-10-19T08:14:31.228Z,6.4
2022-10-19T08:17:31.199Z,6.4
2022-10-19T08:20:31.215Z,7
2022-10-19T08:23:31.226Z,7
2022-10-19T08:26:31.237Z,6
2022-10-19T08:29:31.543Z,4.9
2022-10-19T08:32:31.495Z,4.6
2022-10-19T08:35:31.382Z,5.5
2022-10-19T08:38:31.275Z,4.7
2022-10-19T08:41:31.281Z,6.4
2022-10-19T08:44:31.358Z,5.2
2022-10-19T08:47:31.374Z,7.1
2022-10-19T08:50:31.333Z,5.3
2022-10-19T08:53:31.320Z,4.1
2022-10-19T08:56:50.862Z,6.4
2022-10-19T08:59:31.343Z,5.9
2022-10-19T09:02:31.542Z,4.3
2022-10-19T09:05:31.355Z,6.6
2022-10-19T09:08:31.427Z,5.5
2022-10-19T09:11:31.387Z,4.1
2022-10-19T09:14:31.415Z,5.9
2022-10-19T09:17:31.408Z,5.3
2022-10-19T09:20:31.410Z,5.2
2022-10-19T09:23:31.427Z,4.6
2022-10-19T09:26:31.467Z,4
2022-10-19T09:29:31.449Z,4.9
2022-10-19T09:32:31.730Z,4.9
2022-10-19T09:35:31.472Z,4.7
2022-10-19T09:38:31.481Z,5.4
2022-10-19T09:41:31.492Z,6.2
2022-10-19T09:44:31.530Z,6.6
2022-10-19T09:47:31.633Z,6.5
2022-10-19T09:50:31.534Z,4
2022-10-19T09:53:31.552Z,5
2022-10-19T09:56:31.543Z,6.3
2022-10-19T09:59:31.560Z,6.8
2022-10-19T10:02:31.707Z,4.2
2022-10-19T10:05:31.625Z,4.2
2022-10-19T10:08:31.718Z,4.3
2022-10-19T10:11:31.636Z,4.8
2022-10-19T10:14:31.639Z,4.6
2022-10-19T10:17:31.636Z,4.8
2022-10-19T10:20:31.658Z,4
2022-10-19T10:23:31.636Z,5.3
2022-10-19T10:26:31.685Z,5.4
2022-10-19T10:29:31.639Z,4.5
2022-10-19T10:32:31.864Z,5.1
2022-10-19T10:35:31.637Z,5.2
2022-10-19T10:38:31.674Z,5.3
2022-10-19T10:41:31.644Z,4.1
2022-10-19T10:44:31.649Z,3.7
2022-10-19T10:47:31.886Z,4.5
2022-10-19T10:50:31.653Z,4.4
2022-10-19T10:53:31.650Z,4.6
2022-10-19T10:56:31.676Z,4.5
2022-10-19T10:59:31.675Z,4.8
2022-10-19T11:02:31.665Z,6.4
2022-10-19T11:05:31.656Z,4.4
2022-10-19T11:08:31.706Z,4
2022-10-19T11:11:31.666Z,4.6
2022-10-19T11:14:31.701Z,4.3
2022-10-19T11:17:31.846Z,4.6
2022-10-19T11:20:31.665Z,5.5
2022-10-19T11:23:31.675Z,2.5
2022-10-19T11:26:31.672Z,3.3
2022-10-19T11:29:31.679Z,2.9
2022-10-19T11:32:32.084Z,3.7
2022-10-19T11:35:31.678Z,3.9
2022-10-19T11:38:31.684Z,2.6
2022-10-19T11:41:31.691Z,3.7
2022-10-19T11:44:31.691Z,4.1
2022-10-19T11:47:31.812Z,3.4
2022-10-19T11:50:32.170Z,3.8
2022-10-19T11:53:31.698Z,5.8
2022-10-19T11:56:39.363Z,3.5
2022-10-19T11:59:31.701Z,4.1
2022-10-19T12:02:31.944Z,2.8
2022-10-19T12:05:31.712Z,3.3
2022-10-19T12:08:31.794Z,3.2
2022-10-19T12:11:31.720Z,3.1
2022-10-19T12:14:31.721Z,2.7
2022-10-19T12:17:31.785Z,3.7
2022-10-19T12:20:31.730Z,3.2
2022-10-19T12:23:31.729Z,3.5
2022-10-19T12:26:31.771Z,4.7
2022-10-19T12:29:31.739Z,2.7
2022-10-19T12:32:31.746Z,4.7
2022-10-19T12:35:31.754Z,4.2
2022-10-19T12:38:31.764Z,2.8
2022-10-19T12:41:31.756Z,3.9
2022-10-19T12:44:31.797Z,3.8
2022-10-19T12:47:31.895Z,4
2022-10-19T12:50:32.918Z,2.4
2022-10-19T12:53:31.788Z,4.9
2022-10-19T12:56:31.791Z,4.4
2022-10-19T12:59:31.785Z,3.2
2022-10-19T13:05:31.792Z,3.2
2022-10-19T13:08:31.832Z,4.1
2022-10-19T13:11:31.835Z,4.8
2022-10-19T13:14:31.803Z,3.7
2022-10-19T13:17:33.959Z,4.2
2022-10-19T13:20:32.456Z,2.9
2022-10-19T13:23:31.819Z,3.9
2022-10-19T13:26:31.826Z,2.6
2022-10-19T13:32:32.113Z,2.9
2022-10-19T13:35:31.839Z,4
2022-10-19T13:38:31.930Z,3.4
2022-10-19T13:41:31.863Z,4.1
2022-10-19T13:44:31.866Z,3.2
2022-10-19T13:47:32.080Z,3
2022-10-19T13:50:31.874Z,6.3
2022-10-19T13:53:31.880Z,3.9
2022-10-19T13:56:31.943Z,4.1
2022-10-19T13:59:31.893Z,4.3
2022-10-19T14:02:32.170Z,3
2022-10-19T14:05:31.943Z,5.1
2022-10-19T14:08:31.945Z,2.8
2022-10-19T14:11:31.915Z,3.9
2022-10-19T14:14:32.021Z,3.1
2022-10-19T14:17:32.209Z,3.5
2022-10-19T14:20:31.948Z,3
2022-10-19T14:23:32.027Z,4.2
2022-10-19T14:26:31.954Z,4.7
2022-10-19T14:29:31.958Z,6.2
2022-10-19T14:32:32.054Z,4.1
2022-10-19T14:35:31.984Z,3.5
2022-10-19T14:38:31.989Z,4.7
2022-10-19T14:41:32.069Z,3.9
2022-10-19T14:44:32.000Z,3.7
2022-10-19T14:47:32.012Z,4
2022-10-19T14:50:32.074Z,3.9
2022-10-19T14:53:32.029Z,2.8
2022-10-19T14:56:32.030Z,3.9
2022-10-19T14:59:32.095Z,3.3
2022-10-19T15:02:32.285Z,3.2
2022-10-19T15:05:32.048Z,3.3
2022-10-19T15:08:32.212Z,3.4
2022-10-19T15:11:32.073Z,4.1
2022-10-19T15:14:32.080Z,2.3
2022-10-19T15:17:32.081Z,6.3
2022-10-19T15:20:34.101Z,4
2022-10-19T15:23:32.099Z,3.9
2022-10-19T15:26:32.133Z,4.1
2022-10-19T15:29:32.115Z,5.7
2022-10-19T15:32:32.214Z,2.5
2022-10-19T15:35:32.130Z,3.4
2022-10-19T15:38:32.140Z,3.3
2022-10-19T15:41:32.151Z,3.6
2022-10-19T15:44:32.176Z,4.1
2022-10-19T15:47:32.349Z,3.5
2022-10-19T15:50:32.172Z,4.7
2022-10-19T15:53:32.172Z,3.4
2022-10-19T15:56:32.195Z,3.9
2022-10-19T15:59:32.194Z,6.2
2022-10-19T16:02:32.231Z,5.5
2022-10-19T16:05:32.213Z,4.1
2022-10-19T16:08:32.255Z,3.7
2022-10-19T16:11:32.224Z,5
2022-10-19T16:14:34.330Z,4.9
2022-10-19T16:17:32.440Z,6
2022-10-19T16:20:32.271Z,5.5
2022-10-19T16:23:32.613Z,6.7
2022-10-19T16:26:32.270Z,6
2022-10-19T16:29:32.265Z,6.5
2022-10-19T16:32:32.303Z,6.6
2022-10-19T16:35:32.277Z,6.4
2022-10-19T16:38:32.309Z,7.2
2022-10-19T16:41:32.316Z,6
2022-10-19T16:44:32.295Z,6.3
2022-10-19T16:47:32.298Z,6.2
2022-10-19T16:50:32.345Z,7.5
2022-10-19T16:53:32.301Z,6.8
2022-10-19T16:56:32.339Z,7
2022-10-19T16:59:32.318Z,7
2022-10-19T17:02:32.474Z,7.7
2022-10-19T17:05:32.324Z,7.1
2022-10-19T17:08:44.377Z,10.7
2022-10-19T17:11:32.328Z,15.1
2022-10-19T17:14:32.352Z,12.2
2022-10-19T17:17:32.564Z,11.9
2022-10-19T17:20:32.335Z,13.3
2022-10-19T17:23:32.336Z,11.3
2022-10-19T17:26:32.343Z,13.1
2022-10-19T17:29:32.351Z,11.8
2022-10-19T17:32:32.622Z,14.5
2022-10-19T17:35:32.361Z,16.3
2022-10-19T17:38:32.358Z,18.1
2022-10-19T17:41:32.365Z,16
2022-10-19T17:44:32.372Z,12.6
2022-10-19T17:47:32.603Z,13.4
2022-10-19T17:50:32.403Z,11.2
2022-10-19T17:53:32.370Z,11.3
2022-10-19T17:56:32.371Z,9.8
2022-10-19T17:59:40.624Z,9.2
2022-10-19T18:02:32.399Z,8.4
2022-10-19T18:05:32.404Z,8.2
2022-10-19T18:08:32.420Z,7.9
2022-10-19T18:11:32.414Z,8.4
2022-10-19T18:14:32.419Z,8
2022-10-19T18:17:32.414Z,7.1
2022-10-19T18:20:32.418Z,7.8
2022-10-19T18:23:32.423Z,7.6
2022-10-19T18:26:32.463Z,6.9
2022-10-19T18:29:32.457Z,9.1
2022-10-19T18:32:32.546Z,7.6
2022-10-19T18:35:32.467Z,7.4
2022-10-19T18:38:32.478Z,6.2
2022-10-19T18:41:32.482Z,5
2022-10-19T18:44:33.699Z,4.9
2022-10-19T18:47:32.513Z,6.5
2022-10-19T18:50:32.520Z,7.7
2022-10-19T18:53:32.532Z,6.9
2022-10-19T18:56:32.543Z,5
2022-10-19T18:59:32.586Z,6.9
2022-10-19T19:02:46.281Z,11.3
2022-10-19T19:05:32.571Z,9.1
2022-10-19T19:08:32.671Z,5.9
2022-10-19T19:11:34.239Z,5.4
2022-10-19T19:14:32.611Z,7
2022-10-19T19:17:32.609Z,8.9
2022-10-19T19:20:32.651Z,7
2022-10-19T19:23:32.629Z,6.7
2022-10-19T19:26:32.642Z,6.7
2022-10-19T19:29:32.666Z,7.4
2022-10-19T19:32:32.868Z,9.4
2022-10-19T19:35:32.675Z,11.8
2022-10-19T19:38:32.713Z,10.3
2022-10-19T19:41:32.699Z,11.8
2022-10-19T19:44:32.716Z,9.7
2022-10-19T19:47:32.999Z,8.8
2022-10-19T19:50:32.727Z,6.6
2022-10-19T19:53:32.732Z,7.7
2022-10-19T19:56:32.766Z,9.1
2022-10-19T19:59:32.748Z,8.8
2022-10-19T20:02:32.750Z,8.4
2022-10-19T20:05:32.753Z,10.8
2022-10-19T20:08:32.856Z,8.5
2022-10-19T20:11:32.764Z,10.9
2022-10-19T20:14:32.807Z,9.1
2022-10-19T20:17:32.962Z,10.9
2022-10-19T20:20:32.789Z,10.6
2022-10-19T20:23:32.792Z,11.2
2022-10-19T20:26:32.800Z,12.5
2022-10-19T20:29:32.809Z,12.7
2022-10-19T20:32:33.105Z,12
2022-10-19T20:35:32.803Z,14.8
2022-10-19T20:38:32.811Z,12.1
2022-10-19T20:41:32.819Z,12.6
2022-10-19T20:44:32.837Z,12.8
2022-10-19T20:47:32.847Z,12.4
2022-10-19T20:50:32.881Z,13
2022-10-19T20:53:32.867Z,14.9
2022-10-19T20:56:32.887Z,15.4
2022-10-19T20:59:32.921Z,13
2022-10-19T21:02:33.142Z,14.4
2022-10-19T21:05:32.921Z,15.5
2022-10-19T21:08:32.989Z,13.3
2022-10-19T21:11:32.930Z,14
2022-10-19T21:14:32.973Z,12
2022-10-19T21:17:32.954Z,11.1
2022-10-19T21:20:32.972Z,10.6
2022-10-19T21:23:32.983Z,13.6
2022-10-19T21:26:33.011Z,12.5
2022-10-19T21:29:33.007Z,12.4
2022-10-19T21:32:33.010Z,13.4
2022-10-19T21:35:33.030Z,10.2
2022-10-19T21:38:33.043Z,12.1
2022-10-19T21:41:33.055Z,10.2
2022-10-19T21:44:33.111Z,11.5
2022-10-19T21:47:33.323Z,12.1
2022-10-19T21:50:33.100Z,13.9
2022-10-19T21:53:33.115Z,13.3
2022-10-19T21:56:33.118Z,11.9
2022-10-19T21:59:33.149Z,12.7
2022-10-19T22:02:33.166Z,13.9
2022-10-19T22:05:33.148Z,16.1
2022-10-19T22:08:33.205Z,14.5
2022-10-19T22:11:33.184Z,13.5
2022-10-19T22:14:33.205Z,14.4
2022-10-19T22:17:33.204Z,13.1
2022-10-19T22:20:33.245Z,13.6
2022-10-19T22:23:33.236Z,17.3
2022-10-19T22:26:33.250Z,13.1
2022-10-19T22:29:33.270Z,15.9
2022-10-19T22:32:33.563Z,15.5
2022-10-19T22:35:33.293Z,15.7
2022-10-19T22:38:33.335Z,15.6
2022-10-19T22:41:33.321Z,15.6
2022-10-19T22:44:33.342Z,16.6
2022-10-19T22:47:33.349Z,16.3
2022-10-19T22:50:33.360Z,15.3
2022-10-19T22:53:33.373Z,15.1
2022-10-19T22:56:33.411Z,14.1
2022-10-19T22:59:33.418Z,14.7
2022-10-19T23:02:33.557Z,16.5
2022-10-19T23:05:33.441Z,16.4
2022-10-19T23:08:33.467Z,14
2022-10-19T23:11:33.459Z,17
2022-10-19T23:14:33.514Z,13.1
2022-10-19T23:17:33.740Z,13.3
2022-10-19T23:20:33.513Z,14.6
2022-10-19T23:23:33.535Z,12.7
2022-10-19T23:26:33.552Z,15.9
2022-10-19T23:29:33.581Z,13.8
2022-10-19T23:32:33.614Z,14.2
2022-10-19T23:35:33.604Z,13
2022-10-19T23:38:33.618Z,13.7
2022-10-19T23:41:33.634Z,14
2022-10-19T23:44:33.658Z,13.2
2022-10-19T23:47:33.884Z,12.7
2022-10-19T23:50:33.706Z,12.9
2022-10-19T23:53:34.638Z,14.9
2022-10-19T23:56:33.727Z,18.7
2022-10-19T23:59:33.747Z,15.3
